Terminal Aerodrome Forecast
Issued by NWS

Current Version | Previous Version | Text Only | Print | Product List | Glossary Off
Versions: 1 2 3 4 5 6 7 8 9 10 11 12 13 14 15 16 17 18 19 20 21 22 23 24 25 26

676
FTUS41 KPBZ 270119 AAA
TAFMGW
TAF AMD
KMGW 270119Z 2701/2724 21008KT P6SM OVC100
     FM270200 35010KT P6SM BKN050
     FM270400 36005KT P6SM BKN015
     FM271600 VRB03KT P6SM BKN050=

USA.gov is the U.S. government's official web portal to all federal, state and local government web resources and services.